HKKI

Kisumu Airport

Kisumu, Kenya
METAR HKKI 201400Z 22008KT 9999 FEW023CB BKN090 27/17 Q1014
Observed Flight Rules
Oct-20 @ 14:00 UTC (4 hours ago) Visual Flight Rules
Wind Visibility Clouds
220° at 8 knots 10,000+ meters
  • Few at 2,300' AGL
  • Broken at 9,000' AGL
Temperatures Readings
Current 27°C / 81°F
Dewpoint 17°C / 63°F
Humidity 54%
Altimeter 29.94" Hg
Pressure 1014 hPa
Elevation 1146
METAR HKKI 201400Z 22008KT 9999 FEW023CB BKN090 27/17 Q1014
Observed Flight Rules
Oct-20 @ 14:00 UTC
(4 hours ago)
VFR
Wind Visibility
220° at 8 knots 10,000+ meters
Clouds
  • Few at 2,300' AGL
  • Broken at 9,000' AGL
Temperature Dewpoint
27°C / 81°F 17°C / 63°F
Humidity Altimeter Pressure
54% 29.94" Hg 1014 hPa